createdAt,value
2018-02-17T00:01:02.353Z,1026.88
2018-02-17T00:02:11.427Z,1026.86
2018-02-17T00:03:20.253Z,1026.87
2018-02-17T00:04:29.078Z,1026.88
2018-02-17T00:05:37.904Z,1026.87
2018-02-17T00:06:46.730Z,1026.9
2018-02-17T00:07:56.020Z,1026.89
2018-02-17T00:09:04.848Z,1026.89
2018-02-17T00:10:13.674Z,1026.91
2018-02-17T00:11:22.501Z,1026.89
2018-02-17T00:12:31.329Z,1026.92
2018-02-17T00:13:40.156Z,1026.93
2018-02-17T00:14:48.982Z,1026.93
2018-02-17T00:15:58.091Z,1026.91
2018-02-17T00:17:06.916Z,1026.87
2018-02-17T00:18:15.741Z,1026.88
2018-02-17T00:19:24.569Z,1026.88
2018-02-17T00:20:33.396Z,1026.84
2018-02-17T00:21:42.224Z,1026.89
2018-02-17T00:22:51.328Z,1026.88
2018-02-17T00:24:00.152Z,1026.86
2018-02-17T00:25:08.981Z,1026.91
2018-02-17T00:26:17.805Z,1026.83
2018-02-17T00:27:26.630Z,1026.83
2018-02-17T00:28:35.453Z,1026.83
2018-02-17T00:29:44.277Z,1026.81
2018-02-17T00:30:53.255Z,1026.82
2018-02-17T00:32:02.081Z,1026.76
2018-02-17T00:33:10.908Z,1026.76
2018-02-17T00:34:19.734Z,1026.7
2018-02-17T00:35:28.558Z,1026.71
2018-02-17T00:36:37.663Z,1026.7
2018-02-17T00:37:46.490Z,1026.69
2018-02-17T00:38:55.591Z,1026.75
2018-02-17T00:40:04.418Z,1026.75
2018-02-17T00:41:13.245Z,1026.74
2018-02-17T00:42:22.220Z,1026.8
2018-02-17T00:43:31.044Z,1026.78
2018-02-17T00:44:39.868Z,1026.76
2018-02-17T00:45:48.696Z,1026.7
2018-02-17T00:46:57.795Z,1026.71
2018-02-17T00:48:07.019Z,1026.69
2018-02-17T00:49:15.846Z,1026.67
2018-02-17T00:50:24.671Z,1026.7
2018-02-17T00:51:33.495Z,1026.71
2018-02-17T00:52:42.320Z,1026.71
2018-02-17T00:53:51.296Z,1026.7
2018-02-17T00:55:00.121Z,1026.66
2018-02-17T00:56:08.949Z,1026.63
2018-02-17T00:57:17.772Z,1026.67
2018-02-17T00:58:26.598Z,1026.68
2018-02-17T00:59:35.624Z,1026.64
2018-02-17T01:00:44.460Z,1026.59
2018-02-17T01:01:53.559Z,1026.61
2018-02-17T01:03:02.385Z,1026.6
2018-02-17T01:04:11.215Z,1026.57
2018-02-17T01:05:20.088Z,1026.59
2018-02-17T01:06:28.915Z,1026.61
2018-02-17T01:07:37.738Z,1026.62
2018-02-17T01:08:46.565Z,1026.57
2018-02-17T01:09:55.388Z,1026.62
2018-02-17T01:11:04.263Z,1026.63
2018-02-17T01:12:13.088Z,1026.63
2018-02-17T01:13:21.912Z,1026.63
2018-02-17T01:14:30.738Z,1026.59
2018-02-17T01:15:39.565Z,1026.59
2018-02-17T01:16:48.489Z,1026.57
2018-02-17T01:17:57.312Z,1026.55
2018-02-17T01:19:06.137Z,1026.56
2018-02-17T01:20:14.973Z,1026.54
2018-02-17T01:21:23.790Z,1026.56
2018-02-17T01:22:32.613Z,1026.55
2018-02-17T01:23:41.440Z,1026.59
2018-02-17T01:24:50.268Z,1026.55
2018-02-17T01:25:59.099Z,1026.56
2018-02-17T01:27:07.918Z,1026.55
2018-02-17T01:28:16.794Z,1026.57
2018-02-17T01:29:25.900Z,1026.54
2018-02-17T01:30:34.725Z,1026.56
2018-02-17T01:31:43.877Z,1026.55
2018-02-17T01:32:52.705Z,1026.57
2018-02-17T01:34:01.680Z,1026.54
2018-02-17T01:35:10.784Z,1026.59
2018-02-17T01:36:19.608Z,1026.53
2018-02-17T01:37:28.433Z,1026.57
2018-02-17T01:38:37.255Z,1026.54
2018-02-17T01:39:46.380Z,1026.55
2018-02-17T01:40:55.208Z,1026.49
2018-02-17T01:42:04.035Z,1026.53
2018-02-17T01:43:13.134Z,1026.48
2018-02-17T01:44:21.962Z,1026.48
2018-02-17T01:45:30.788Z,1026.42
2018-02-17T01:46:39.611Z,1026.47
2018-02-17T01:47:48.439Z,1026.43
2018-02-17T01:48:57.538Z,1026.42
2018-02-17T01:50:06.634Z,1026.38
2018-02-17T01:51:15.460Z,1026.35
2018-02-17T01:52:24.286Z,1026.35
2018-02-17T01:53:33.109Z,1026.34
2018-02-17T01:54:42.214Z,1026.34
2018-02-17T01:55:51.035Z,1026.3
2018-02-17T01:57:00.011Z,1026.3
2018-02-17T01:58:08.834Z,1026.34
2018-02-17T01:59:17.664Z,1026.31
2018-02-17T02:00:26.766Z,1026.38
2018-02-17T02:01:35.589Z,1026.36
2018-02-17T02:02:44.614Z,1026.3
2018-02-17T02:03:53.439Z,1026.32
2018-02-17T02:05:02.263Z,1026.34
2018-02-17T02:06:11.086Z,1026.34
2018-02-17T02:07:19.910Z,1026.37
2018-02-17T02:08:28.741Z,1026.35
2018-02-17T02:09:37.838Z,1026.32
2018-02-17T02:10:46.663Z,1026.35
2018-02-17T02:11:55.486Z,1026.35
2018-02-17T02:13:04.314Z,1026.35
2018-02-17T02:14:13.186Z,1026.34
2018-02-17T02:15:22.010Z,1026.31
2018-02-17T02:16:30.836Z,1026.26
2018-02-17T02:17:39.659Z,1026.26
2018-02-17T02:18:48.484Z,1026.22
2018-02-17T02:19:57.461Z,1026.22
2018-02-17T02:21:06.285Z,1026.25
2018-02-17T02:22:15.109Z,1026.22
2018-02-17T02:23:23.934Z,1026.26
2018-02-17T02:24:32.761Z,1026.28
2018-02-17T02:25:41.584Z,1026.28
2018-02-17T02:26:50.410Z,1026.27
2018-02-17T02:27:59.234Z,1026.24
2018-02-17T02:29:08.340Z,1026.24
2018-02-17T02:30:17.169Z,1026.23
2018-02-17T02:31:26.275Z,1026.23
2018-02-17T02:32:35.098Z,1026.16
2018-02-17T02:33:43.923Z,1026.14
2018-02-17T02:34:52.750Z,1026.12
2018-02-17T02:36:01.572Z,1026.14
2018-02-17T02:37:10.459Z,1026.09
2018-02-17T02:38:19.584Z,1026.12
2018-02-17T02:39:28.681Z,1026.11
2018-02-17T02:40:37.506Z,1026.05
2018-02-17T02:41:46.330Z,1026.09
2018-02-17T02:42:55.315Z,1026.05
2018-02-17T02:44:04.131Z,1026.08
2018-02-17T02:45:12.960Z,1026.1
2018-02-17T02:46:21.782Z,1026.03
2018-02-17T02:47:30.603Z,1026.07
2018-02-17T02:48:40.005Z,1026
2018-02-17T02:49:48.829Z,1025.97
2018-02-17T02:50:57.654Z,1026.01
2018-02-17T02:52:06.479Z,1026
2018-02-17T02:53:15.309Z,1025.97
2018-02-17T02:54:24.184Z,1025.99
2018-02-17T02:55:33.009Z,1026.01
2018-02-17T02:56:41.836Z,1026.03
2018-02-17T02:57:50.659Z,1026.05
2018-02-17T02:58:59.487Z,1026.06
2018-02-17T03:00:08.609Z,1026.03
2018-02-17T03:01:17.448Z,1026.04
2018-02-17T03:02:26.268Z,1026.02
2018-02-17T03:03:35.372Z,1026.01
2018-02-17T03:04:44.198Z,1026.03
2018-02-17T03:05:53.327Z,1026.05
2018-02-17T03:07:02.156Z,1026.07
2018-02-17T03:08:10.980Z,1026.11
2018-02-17T03:09:19.806Z,1026.12
2018-02-17T03:10:28.632Z,1026.14
2018-02-17T03:11:37.886Z,1026.17
2018-02-17T03:12:46.711Z,1026.14
2018-02-17T03:13:55.537Z,1026.18
2018-02-17T03:15:04.364Z,1026.13
2018-02-17T03:16:13.186Z,1026.17
2018-02-17T03:17:22.062Z,1026.14
2018-02-17T03:18:31.163Z,1026.18
2018-02-17T03:19:39.994Z,1026.19
2018-02-17T03:20:48.821Z,1026.14
2018-02-17T03:21:57.646Z,1026.14
2018-02-17T03:23:06.770Z,1026.19
2018-02-17T03:24:15.594Z,1026.18
2018-02-17T03:25:24.421Z,1026.18
2018-02-17T03:26:33.245Z,1026.16
2018-02-17T03:27:42.068Z,1026.18
2018-02-17T03:28:51.044Z,1026.2
2018-02-17T03:29:59.869Z,1026.21
2018-02-17T03:31:08.979Z,1026.19
2018-02-17T03:32:17.805Z,1026.2
2018-02-17T03:33:26.630Z,1026.2
2018-02-17T03:34:35.504Z,1026.17
2018-02-17T03:35:44.328Z,1026.18
2018-02-17T03:36:53.157Z,1026.13
2018-02-17T03:38:01.982Z,1026.07
2018-02-17T03:39:10.806Z,1026.05
2018-02-17T03:40:19.683Z,1026.05
2018-02-17T03:41:28.508Z,1026.05
2018-02-17T03:42:37.333Z,1026.03
2018-02-17T03:43:46.159Z,1026.05
2018-02-17T03:44:54.988Z,1026.05
2018-02-17T03:46:04.247Z,1026.01
2018-02-17T03:47:13.073Z,1026.03
2018-02-17T03:48:22.171Z,1026.03
2018-02-17T03:49:30.995Z,1026.02
2018-02-17T03:50:40.101Z,1026
2018-02-17T03:51:49.125Z,1026.01
2018-02-17T03:52:57.951Z,1026.01
2018-02-17T03:54:07.051Z,1026.05
2018-02-17T03:55:15.877Z,1026.05
2018-02-17T03:56:24.700Z,1025.97
2018-02-17T03:57:33.825Z,1025.94
2018-02-17T03:58:42.651Z,1025.95
2018-02-17T03:59:51.476Z,1025.94
2018-02-17T04:01:00.302Z,1025.89
2018-02-17T04:02:09.127Z,1025.91
2018-02-17T04:03:18.108Z,1025.85
2018-02-17T04:04:27.208Z,1025.87
2018-02-17T04:05:36.034Z,1025.87
2018-02-17T04:06:44.860Z,1025.86
2018-02-17T04:07:53.689Z,1025.85
2018-02-17T04:09:02.511Z,1025.85
2018-02-17T04:10:11.336Z,1025.84
2018-02-17T04:11:20.162Z,1025.83
2018-02-17T04:12:28.988Z,1025.82
2018-02-17T04:13:37.864Z,1025.8
2018-02-17T04:14:47.115Z,1025.78
2018-02-17T04:15:55.939Z,1025.8
2018-02-17T04:17:04.765Z,1025.81
2018-02-17T04:18:13.591Z,1025.79
2018-02-17T04:19:22.419Z,1025.79
2018-02-17T04:20:31.300Z,1025.82
2018-02-17T04:21:40.122Z,1025.79
2018-02-17T04:22:48.947Z,1025.83
2018-02-17T04:23:57.774Z,1025.83
2018-02-17T04:25:06.602Z,1025.83
2018-02-17T04:26:15.529Z,1025.8
2018-02-17T04:27:24.635Z,1025.82
2018-02-17T04:28:33.456Z,1025.84
2018-02-17T04:29:42.286Z,1025.86
2018-02-17T04:30:51.112Z,1025.85
2018-02-17T04:32:00.087Z,1025.79
2018-02-17T04:33:08.915Z,1025.87
2018-02-17T04:34:18.022Z,1025.84
2018-02-17T04:35:26.847Z,1025.84
2018-02-17T04:36:35.672Z,1025.88
2018-02-17T04:37:44.600Z,1025.91
2018-02-17T04:38:53.753Z,1025.87
2018-02-17T04:40:02.578Z,1025.91
2018-02-17T04:41:11.409Z,1025.86
2018-02-17T04:42:20.236Z,1025.88
2018-02-17T04:43:29.212Z,1025.88
2018-02-17T04:44:38.313Z,1025.88
2018-02-17T04:45:47.138Z,1025.81
2018-02-17T04:46:55.964Z,1025.78
2018-02-17T04:48:04.789Z,1025.73
2018-02-17T04:49:13.664Z,1025.72
2018-02-17T04:50:22.490Z,1025.71
2018-02-17T04:51:31.316Z,1025.74
2018-02-17T04:52:40.143Z,1025.68
2018-02-17T04:53:48.969Z,1025.72
2018-02-17T04:54:57.895Z,1025.7
2018-02-17T04:56:06.721Z,1025.7
2018-02-17T04:57:15.546Z,1025.74
2018-02-17T04:58:24.372Z,1025.73
2018-02-17T04:59:33.474Z,1025.73
2018-02-17T05:00:42.454Z,1025.71
2018-02-17T05:01:51.283Z,1025.73
2018-02-17T05:03:00.107Z,1025.7
2018-02-17T05:04:08.933Z,1025.73
2018-02-17T05:05:17.759Z,1025.72
2018-02-17T05:06:26.585Z,1025.69
2018-02-17T05:07:35.412Z,1025.72
2018-02-17T05:08:44.238Z,1025.72
2018-02-17T05:09:53.063Z,1025.74
2018-02-17T05:11:01.889Z,1025.75
2018-02-17T05:12:10.715Z,1025.75
2018-02-17T05:13:19.542Z,1025.79
2018-02-17T05:14:28.644Z,1025.71
2018-02-17T05:15:37.471Z,1025.71
2018-02-17T05:16:46.296Z,1025.7
2018-02-17T05:17:55.222Z,1025.75
2018-02-17T05:19:04.047Z,1025.74
2018-02-17T05:20:12.873Z,1025.75
2018-02-17T05:21:21.697Z,1025.81
2018-02-17T05:22:30.525Z,1025.82
2018-02-17T05:23:39.780Z,1025.82
2018-02-17T05:24:48.641Z,1025.84
2018-02-17T05:25:57.434Z,1025.84
2018-02-17T05:27:06.262Z,1025.82
2018-02-17T05:28:15.085Z,1025.83
2018-02-17T05:29:24.064Z,1025.79
2018-02-17T05:30:32.886Z,1025.84
2018-02-17T05:31:41.713Z,1025.82
2018-02-17T05:32:50.537Z,1025.78
2018-02-17T05:33:59.363Z,1025.81
2018-02-17T05:35:08.518Z,1025.78
2018-02-17T05:36:17.341Z,1025.79
2018-02-17T05:37:26.166Z,1025.77
2018-02-17T05:38:34.991Z,1025.81
2018-02-17T05:39:43.818Z,1025.82
2018-02-17T05:40:52.796Z,1025.83
2018-02-17T05:42:01.621Z,1025.8
2018-02-17T05:43:10.449Z,1025.83
2018-02-17T05:44:19.277Z,1025.81
2018-02-17T05:45:28.102Z,1025.88
2018-02-17T05:46:37.031Z,1025.86
2018-02-17T05:47:45.853Z,1025.82
2018-02-17T05:48:54.680Z,1025.86
2018-02-17T05:50:03.507Z,1025.82
2018-02-17T05:51:12.334Z,1025.85
2018-02-17T05:52:21.311Z,1025.82
2018-02-17T05:53:30.415Z,1025.82
2018-02-17T05:54:39.244Z,1025.8
2018-02-17T05:55:48.066Z,1025.81
2018-02-17T05:56:56.892Z,1025.78
2018-02-17T05:58:05.820Z,1025.79
2018-02-17T05:59:14.647Z,1025.78
2018-02-17T06:00:23.471Z,1025.79
2018-02-17T06:01:32.298Z,1025.75
2018-02-17T06:02:41.404Z,1025.72
2018-02-17T06:03:50.507Z,1025.74
2018-02-17T06:04:59.335Z,1025.74
2018-02-17T06:06:08.159Z,1025.77
2018-02-17T06:07:16.986Z,1025.77
2018-02-17T06:08:25.813Z,1025.79
2018-02-17T06:09:34.797Z,1025.78
2018-02-17T06:10:43.464Z,1025.76
2018-02-17T06:11:52.292Z,1025.78
2018-02-17T06:13:01.118Z,1025.77
2018-02-17T06:14:10.221Z,1025.77
2018-02-17T06:15:19.298Z,1025.75
2018-02-17T06:16:28.125Z,1025.73
2018-02-17T06:17:37.434Z,1025.74
2018-02-17T06:18:46.529Z,1025.76
2018-02-17T06:19:55.851Z,1025.78
2018-02-17T06:21:04.912Z,1025.79
2018-02-17T06:22:14.242Z,1025.71
2018-02-17T06:23:23.333Z,1025.73
2018-02-17T06:24:32.203Z,1025.71
2018-02-17T06:25:44.268Z,1025.68
2018-02-17T06:26:53.330Z,1025.67
2018-02-17T06:28:02.187Z,1025.67
2018-02-17T06:29:11.018Z,1025.63
2018-02-17T06:30:19.956Z,1025.58
2018-02-17T06:31:29.017Z,1025.57
2018-02-17T06:32:38.370Z,1025.63
2018-02-17T06:33:47.421Z,1025.6
2018-02-17T06:34:56.734Z,1025.6
2018-02-17T06:36:06.355Z,1025.62
2018-02-17T06:37:15.598Z,1025.6
2018-02-17T06:40:04.448Z,1025.54
2018-02-17T06:41:13.302Z,1025.52
2018-02-17T06:42:22.538Z,1025.54
2018-02-17T06:43:31.374Z,1025.52
2018-02-17T06:44:40.733Z,1025.53
2018-02-17T06:45:50.044Z,1025.49
2018-02-17T06:46:58.891Z,1025.49
2018-02-17T06:48:08.165Z,1025.46
2018-02-17T06:49:17.325Z,1025.45
2018-02-17T06:50:26.698Z,1025.45
2018-02-17T06:51:35.562Z,1025.44
2018-02-17T06:52:44.883Z,1025.41
2018-02-17T06:53:53.949Z,1025.47
2018-02-17T06:55:03.170Z,1025.47
2018-02-17T06:56:12.305Z,1025.45
2018-02-17T06:57:21.876Z,1025.43
2018-02-17T06:58:31.480Z,1025.47
2018-02-17T06:59:40.416Z,1025.5
2018-02-17T07:02:28.226Z,1025.54
2018-02-17T07:03:37.644Z,1025.53
2018-02-17T07:04:46.541Z,1025.52
2018-02-17T07:05:55.886Z,1025.55
2018-02-17T07:07:04.802Z,1025.51
2018-02-17T07:08:14.360Z,1025.5
2018-02-17T07:09:23.497Z,1025.5
2018-02-17T07:10:32.452Z,1025.54
2018-02-17T07:13:20.057Z,1025.55
2018-02-17T07:14:29.255Z,1025.58
2018-02-17T07:15:38.108Z,1025.55
2018-02-17T07:16:47.264Z,1025.58
2018-02-17T07:17:56.091Z,1025.58
2018-02-17T07:19:04.917Z,1025.58
2018-02-17T07:20:13.744Z,1025.63
2018-02-17T07:21:22.572Z,1025.63
2018-02-17T07:22:31.550Z,1025.66
2018-02-17T07:23:40.375Z,1025.69
2018-02-17T07:24:49.203Z,1025.69
2018-02-17T07:25:58.030Z,1025.69
2018-02-17T07:27:07.417Z,1025.62
2018-02-17T07:28:16.393Z,1025.58
2018-02-17T07:29:25.220Z,1025.52
2018-02-17T07:30:34.049Z,1025.51
2018-02-17T07:31:42.880Z,1025.52
2018-02-17T07:32:51.707Z,1025.44
2018-02-17T07:34:00.638Z,1025.43
2018-02-17T07:35:09.742Z,1025.46
2018-02-17T07:36:18.569Z,1025.45
2018-02-17T07:37:27.397Z,1025.43
2018-02-17T07:38:36.221Z,1025.42
2018-02-17T07:39:45.050Z,1025.42
2018-02-17T07:40:53.876Z,1025.42
2018-02-17T07:42:02.704Z,1025.44
2018-02-17T07:43:11.535Z,1025.44
2018-02-17T07:44:20.611Z,1025.44
2018-02-17T07:45:29.453Z,1025.44
2018-02-17T07:46:38.280Z,1025.39
2018-02-17T07:47:47.108Z,1025.35
2018-02-17T07:48:55.936Z,1025.34
2018-02-17T07:50:04.763Z,1025.3
2018-02-17T07:51:13.591Z,1025.29
2018-02-17T07:52:22.419Z,1025.3
2018-02-17T07:53:31.246Z,1025.3
2018-02-17T07:54:40.076Z,1025.37
2018-02-17T07:55:48.905Z,1025.35
2018-02-17T07:56:57.731Z,1025.37
2018-02-17T07:58:06.835Z,1025.43
2018-02-17T07:59:15.663Z,1025.43
2018-02-17T08:00:24.498Z,1025.41
2018-02-17T08:01:33.598Z,1025.42
2018-02-17T08:02:42.421Z,1025.44
2018-02-17T08:03:51.248Z,1025.43
2018-02-17T08:05:00.076Z,1025.4
2018-02-17T08:06:08.903Z,1025.41
2018-02-17T08:07:17.731Z,1025.36
2018-02-17T08:08:26.558Z,1025.34
2018-02-17T08:09:35.385Z,1025.37
2018-02-17T08:10:44.214Z,1025.33
2018-02-17T08:11:53.043Z,1025.29
2018-02-17T08:13:01.876Z,1025.27
2018-02-17T08:14:10.701Z,1025.26
2018-02-17T08:15:19.530Z,1025.25
2018-02-17T08:16:28.358Z,1025.27
2018-02-17T08:17:37.190Z,1025.25
2018-02-17T08:18:46.021Z,1025.25
2018-02-17T08:19:54.850Z,1025.24
2018-02-17T08:21:03.928Z,1025.23
2018-02-17T08:22:12.757Z,1025.21
2018-02-17T08:23:21.593Z,1025.16
2018-02-17T08:24:30.451Z,1025.16
2018-02-17T08:25:39.262Z,1025.13
2018-02-17T08:26:48.242Z,1025.15
2018-02-17T08:27:57.073Z,1025.18
2018-02-17T08:29:05.905Z,1025.18
2018-02-17T08:30:14.750Z,1025.16
2018-02-17T08:31:23.877Z,1025.11
2018-02-17T08:32:32.964Z,1025.15
2018-02-17T08:33:42.150Z,1025.16
2018-02-17T08:34:50.979Z,1025.17
2018-02-17T08:35:59.810Z,1025.15
2018-02-17T08:37:08.641Z,1025.16
2018-02-17T08:38:17.519Z,1025.2
2018-02-17T08:39:26.363Z,1025.21
2018-02-17T08:40:35.199Z,1025.22
2018-02-17T08:41:44.029Z,1025.22
2018-02-17T08:42:52.858Z,1025.21
2018-02-17T08:44:02.010Z,1025.25
2018-02-17T08:45:10.861Z,1025.23
2018-02-17T08:46:19.752Z,1025.24
2018-02-17T08:47:28.598Z,1025.27
2018-02-17T08:48:37.441Z,1025.27
2018-02-17T08:49:46.667Z,1025.29
2018-02-17T08:50:55.530Z,1025.29
2018-02-17T08:52:04.361Z,1025.32
2018-02-17T08:53:13.205Z,1025.27
2018-02-17T08:54:22.033Z,1025.26
2018-02-17T08:55:30.860Z,1025.27
2018-02-17T08:56:39.689Z,1025.25
2018-02-17T08:57:48.516Z,1025.27
2018-02-17T08:58:57.347Z,1025.25
2018-02-17T09:00:06.183Z,1025.28
2018-02-17T09:01:15.286Z,1025.28
2018-02-17T09:02:24.117Z,1025.27
2018-02-17T09:03:33.506Z,1025.27
2018-02-17T09:04:42.333Z,1025.28
2018-02-17T09:05:51.182Z,1025.27
2018-02-17T09:07:00.488Z,1025.32
2018-02-17T09:08:09.595Z,1025.3
2018-02-17T09:09:18.451Z,1025.32
2018-02-17T09:10:27.277Z,1025.29
2018-02-17T09:11:36.115Z,1025.32
2018-02-17T09:12:45.045Z,1025.35
2018-02-17T09:13:53.883Z,1025.37
2018-02-17T09:15:03.013Z,1025.38
2018-02-17T09:16:11.839Z,1025.38
2018-02-17T09:17:20.667Z,1025.39
2018-02-17T09:18:29.821Z,1025.4
2018-02-17T09:19:38.649Z,1025.37
2018-02-17T09:20:47.756Z,1025.35
2018-02-17T09:21:56.584Z,1025.36
2018-02-17T09:23:05.414Z,1025.34
2018-02-17T09:24:14.542Z,1025.36
2018-02-17T09:25:23.372Z,1025.33
2018-02-17T09:26:32.201Z,1025.38
2018-02-17T09:27:41.029Z,1025.39
2018-02-17T09:28:49.860Z,1025.39
2018-02-17T09:29:58.989Z,1025.42
2018-02-17T09:31:08.094Z,1025.42
2018-02-17T09:32:16.921Z,1025.4
2018-02-17T09:33:25.750Z,1025.42
2018-02-17T09:34:34.579Z,1025.4
2018-02-17T09:35:43.407Z,1025.41
2018-02-17T09:36:52.240Z,1025.39
2018-02-17T09:38:01.065Z,1025.42
2018-02-17T09:39:09.894Z,1025.37
2018-02-17T09:40:18.721Z,1025.44
2018-02-17T09:41:27.826Z,1025.43
2018-02-17T09:42:36.656Z,1025.44
2018-02-17T09:43:45.483Z,1025.47
2018-02-17T09:44:54.309Z,1025.44
2018-02-17T09:46:03.146Z,1025.43
2018-02-17T09:47:12.366Z,1025.39
2018-02-17T09:48:21.240Z,1025.42
2018-02-17T09:49:30.089Z,1025.39
2018-02-17T09:50:38.927Z,1025.39
2018-02-17T09:51:47.847Z,1025.43
2018-02-17T09:52:56.774Z,1025.38
2018-02-17T09:54:05.606Z,1025.45
2018-02-17T09:55:14.437Z,1025.43
2018-02-17T09:56:23.262Z,1025.44
2018-02-17T09:57:32.091Z,1025.4
2018-02-17T09:58:41.222Z,1025.4
2018-02-17T09:59:50.326Z,1025.37
2018-02-17T10:00:59.152Z,1025.38
2018-02-17T10:02:08.002Z,1025.37
2018-02-17T10:03:16.838Z,1025.39
2018-02-17T10:04:25.716Z,1025.37
2018-02-17T10:05:34.548Z,1025.44
2018-02-17T10:06:43.654Z,1025.41
2018-02-17T10:07:52.534Z,1025.38
2018-02-17T10:09:01.362Z,1025.33
2018-02-17T10:10:10.342Z,1025.33
2018-02-17T10:11:19.199Z,1025.35
2018-02-17T10:12:28.127Z,1025.33
2018-02-17T10:13:37.237Z,1025.33
2018-02-17T10:14:46.117Z,1025.34
2018-02-17T10:15:55.244Z,1025.27
2018-02-17T10:17:04.083Z,1025.33
2018-02-17T10:18:12.923Z,1025.32
2018-02-17T10:19:21.752Z,1025.31
2018-02-17T10:20:30.584Z,1025.27
2018-02-17T10:21:39.567Z,1025.26
2018-02-17T10:22:48.396Z,1025.27
2018-02-17T10:23:57.228Z,1025.2
2018-02-17T10:25:06.612Z,1025.2
2018-02-17T10:26:15.454Z,1025.22
2018-02-17T10:27:24.284Z,1025.22
2018-02-17T10:28:33.115Z,1025.16
2018-02-17T10:29:41.947Z,1025.22
2018-02-17T10:30:50.774Z,1025.23
2018-02-17T10:31:59.605Z,1025.22
2018-02-17T10:33:08.436Z,1025.23
2018-02-17T10:34:17.269Z,1025.25
2018-02-17T10:35:26.224Z,1025.24
2018-02-17T10:36:35.394Z,1025.23
2018-02-17T10:37:44.226Z,1025.24
2018-02-17T10:38:53.156Z,1025.25
2018-02-17T10:40:01.991Z,1025.23
2018-02-17T10:41:10.825Z,1025.27
2018-02-17T10:42:19.656Z,1025.27
2018-02-17T10:43:28.498Z,1025.26
2018-02-17T10:44:37.581Z,1025.28
2018-02-17T10:45:46.413Z,1025.25
2018-02-17T10:46:55.243Z,1025.3
2018-02-17T10:48:04.366Z,1025.27
2018-02-17T10:49:13.473Z,1025.24
2018-02-17T10:50:22.465Z,1025.27
2018-02-17T10:51:31.297Z,1025.27
2018-02-17T10:52:40.128Z,1025.28
2018-02-17T10:53:48.957Z,1025.32
2018-02-17T10:54:57.790Z,1025.3
2018-02-17T10:56:06.772Z,1025.32
2018-02-17T10:57:15.602Z,1025.36
2018-02-17T10:58:24.435Z,1025.37
2018-02-17T10:59:33.265Z,1025.32
2018-02-17T11:00:42.127Z,1025.34
2018-02-17T11:01:50.978Z,1025.31
2018-02-17T11:02:59.811Z,1025.3
2018-02-17T11:04:08.921Z,1025.33
2018-02-17T11:05:18.027Z,1025.29
2018-02-17T11:06:27.146Z,1025.29
2018-02-17T11:07:36.130Z,1025.3
2018-02-17T11:08:44.961Z,1025.3
2018-02-17T11:09:53.795Z,1025.26
2018-02-17T11:11:02.629Z,1025.3
2018-02-17T11:12:11.463Z,1025.3
2018-02-17T11:13:20.596Z,1025.3
2018-02-17T11:14:29.427Z,1025.35
2018-02-17T11:15:38.260Z,1025.33
2018-02-17T11:16:47.092Z,1025.3
2018-02-17T11:17:55.922Z,1025.36
2018-02-17T11:19:04.809Z,1025.32
2018-02-17T11:20:13.641Z,1025.3
2018-02-17T11:21:22.472Z,1025.32
2018-02-17T11:22:31.305Z,1025.28
2018-02-17T11:23:40.140Z,1025.22
2018-02-17T11:24:49.127Z,1025.27
2018-02-17T11:25:58.232Z,1025.26
2018-02-17T11:27:07.068Z,1025.25
2018-02-17T11:28:15.896Z,1025.22
2018-02-17T11:29:24.730Z,1025.24
2018-02-17T11:30:33.838Z,1025.29
2018-02-17T11:31:42.670Z,1025.25
2018-02-17T11:32:51.783Z,1025.29
2018-02-17T11:34:00.884Z,1025.32
2018-02-17T11:35:09.714Z,1025.3
2018-02-17T11:36:18.647Z,1025.28
2018-02-17T11:37:27.486Z,1025.24
2018-02-17T11:38:36.316Z,1025.21
2018-02-17T11:39:45.424Z,1025.23
2018-02-17T11:40:54.258Z,1025.25
2018-02-17T11:42:03.390Z,1025.23
2018-02-17T11:43:12.222Z,1025.2
2018-02-17T11:44:21.057Z,1025.22
2018-02-17T11:45:30.445Z,1025.22
2018-02-17T11:46:39.277Z,1025.21
2018-02-17T11:47:48.113Z,1025.2
2018-02-17T11:48:56.940Z,1025.19
2018-02-17T11:50:05.772Z,1025.17
2018-02-17T11:51:14.604Z,1025.16
2018-02-17T11:52:23.438Z,1025.15
2018-02-17T11:53:32.861Z,1025.19
2018-02-17T11:54:41.684Z,1025.16
2018-02-17T11:55:50.512Z,1025.17
2018-02-17T11:56:59.345Z,1025.17
2018-02-17T11:58:08.178Z,1025.12
2018-02-17T11:59:17.068Z,1025.08
2018-02-17T12:00:25.895Z,1025.1
2018-02-17T12:01:34.728Z,1025.14
2018-02-17T12:02:43.560Z,1025.1
2018-02-17T12:03:52.393Z,1025.08
2018-02-17T12:05:01.327Z,1025.08
2018-02-17T12:06:10.160Z,1025.07
2018-02-17T12:07:18.994Z,1025.08
2018-02-17T12:08:27.825Z,1025.11
2018-02-17T12:09:36.658Z,1025.07
2018-02-17T12:10:45.741Z,1025.08
2018-02-17T12:11:54.573Z,1025.11
2018-02-17T12:13:03.407Z,1025.12
2018-02-17T12:14:12.246Z,1025.14
2018-02-17T12:15:21.078Z,1025.09
2018-02-17T12:16:29.910Z,1025.09
2018-02-17T12:17:38.747Z,1025.14
2018-02-17T12:18:47.578Z,1025.13
2018-02-17T12:19:56.411Z,1025.08
2018-02-17T12:21:05.553Z,1025.11
2018-02-17T12:22:14.356Z,1025.11
2018-02-17T12:23:23.190Z,1025.1
2018-02-17T12:24:32.033Z,1025.1
2018-02-17T12:25:40.867Z,1025.05
2018-02-17T12:26:49.699Z,1025.04
2018-02-17T12:27:58.957Z,1025.05
2018-02-17T12:29:07.792Z,1025.03
2018-02-17T12:30:16.635Z,1025.06
2018-02-17T12:31:25.459Z,1025.05
2018-02-17T12:32:34.292Z,1025.04
2018-02-17T12:33:43.124Z,1025.05
2018-02-17T12:34:51.959Z,1025.06
2018-02-17T12:36:00.793Z,1025.05
2018-02-17T12:37:09.628Z,1025.11
2018-02-17T12:38:18.459Z,1025.11
2018-02-17T12:39:27.442Z,1025.1
2018-02-17T12:40:36.277Z,1025.11
2018-02-17T12:41:45.113Z,1025.11
2018-02-17T12:42:53.945Z,1025.11
2018-02-17T12:44:02.779Z,1025.08
2018-02-17T12:45:11.863Z,1025.07
2018-02-17T12:46:20.696Z,1025.05
2018-02-17T12:47:29.536Z,1025.07
2018-02-17T12:48:38.370Z,1025.03
2018-02-17T12:49:47.208Z,1025.02
2018-02-17T12:50:56.057Z,1025.02
2018-02-17T12:52:04.885Z,1025.01
2018-02-17T12:53:13.703Z,1025.03
2018-02-17T12:54:22.536Z,1025
2018-02-17T12:55:31.369Z,1025.02
2018-02-17T12:56:40.303Z,1025
2018-02-17T12:57:49.137Z,1025.02
2018-02-17T12:58:57.972Z,1024.98
2018-02-17T13:00:06.805Z,1024.97
2018-02-17T13:01:15.639Z,1025.01
2018-02-17T13:02:24.521Z,1025.01
2018-02-17T13:03:33.355Z,1024.97
2018-02-17T13:04:42.190Z,1025.01
2018-02-17T13:05:51.023Z,1024.98
2018-02-17T13:06:59.858Z,1024.97
2018-02-17T13:08:08.691Z,1024.92
2018-02-17T13:09:17.525Z,1024.95
2018-02-17T13:10:26.369Z,1024.99
2018-02-17T13:11:35.517Z,1024.94
2018-02-17T13:12:44.352Z,1024.97
2018-02-17T13:13:53.287Z,1024.95
2018-02-17T13:15:02.125Z,1024.99
2018-02-17T13:16:10.961Z,1025.04
2018-02-17T13:17:20.070Z,1024.99
2018-02-17T13:18:29.186Z,1024.98
2018-02-17T13:19:38.170Z,1024.94
2018-02-17T13:20:47.004Z,1025
2018-02-17T13:21:55.841Z,1024.97
2018-02-17T13:23:04.674Z,1025
2018-02-17T13:24:13.509Z,1024.99
2018-02-17T13:25:22.342Z,1024.97
2018-02-17T13:26:31.179Z,1024.95
2018-02-17T13:27:40.013Z,1025.01
2018-02-17T13:28:48.849Z,1024.96
2018-02-17T13:29:57.687Z,1025
2018-02-17T13:31:06.583Z,1024.93
2018-02-17T13:32:15.430Z,1024.94
2018-02-17T13:33:24.281Z,1024.88
2018-02-17T13:34:33.122Z,1024.95
2018-02-17T13:35:41.957Z,1024.89
2018-02-17T13:36:50.952Z,1024.9
2018-02-17T13:38:00.611Z,1024.91
2018-02-17T13:39:09.730Z,1024.91
2018-02-17T13:40:18.840Z,1024.93
2018-02-17T13:41:27.684Z,1024.88
2018-02-17T13:42:36.527Z,1024.9
2018-02-17T13:43:45.371Z,1024.88
2018-02-17T13:44:54.206Z,1024.86
2018-02-17T13:46:03.042Z,1024.87
2018-02-17T13:47:11.879Z,1024.82
2018-02-17T13:48:20.864Z,1024.77
2018-02-17T13:49:29.701Z,1024.8
2018-02-17T13:50:38.537Z,1024.79
2018-02-17T13:51:47.659Z,1024.83
2018-02-17T13:52:56.771Z,1024.81
2018-02-17T13:54:05.894Z,1024.82
2018-02-17T13:55:14.745Z,1024.86
2018-02-17T13:56:23.583Z,1024.82
2018-02-17T13:57:32.420Z,1024.76
2018-02-17T13:58:41.258Z,1024.83
2018-02-17T13:59:50.389Z,1024.81
2018-02-17T14:00:59.227Z,1024.77
2018-02-17T14:02:08.069Z,1024.8